CFY4 weather

Winters Aire Park Airport
Indus, Alberta, Canada

Public forecast

Using degrees Celsius for public forecast. Weather courtesy of forecast.io.

Closest aviation weather report (METAR) to Winters Aire Park Airport

Closest report is Calgary International Airport, 15.1 nm (28.0 km) NW. Retrieved 2019/10/17 12:00 UTC (33 minutes ago):

CYYC 171200Z 22005KT 15SM BKN130 08/M01 A2935 RMK AC6 SLP948 DENSITY ALT 4300FT

Closest aviation forecast (TAF) to Winters Aire Park Airport

Closest forecast is Calgary International Airport, 15.1 nm (28.0 km) NW. Retrieved 2019/10/17 12:39 UTC (0 seconds ago):

TAF CYYC 171138Z 1712/1812 24005KT P6SM FEW130 BKN200 FM171700 28005KT P6SM FEW200 BECMG 1718/1720 30008KT FM172100 30012KT P6SM FEW060 BECMG 1801/1803 27005KT RMK NXT FCST BY 171500Z